Time;durP1;ratioP1;P1;durP2;ratioP2;P2;SDS_P1;SDS_P2;PMS_P1;PMS_P2;Temp;Humidity;BMP_temperature;BMP_pressure;BME280_temperature;BME280_humidity;BME280_pressure;Samples;Min_cycle;Max_cycle;Signal;HPM_P1;HPM_P2
2021/12/08 00:00:53;;;;;;;7.90;3.85;;;4.60;99.90;;;;;;5117503;28;20044;-63
2021/12/08 00:03:20;;;;;;;7.03;3.95;;;4.60;99.90;;;;;;5098360;28;20043;-63
2021/12/08 00:05:46;;;;;;;8.60;4.28;;;4.60;99.90;;;;;;5109245;28;20062;-63
2021/12/08 00:08:16;;;;;;;7.00;3.95;;;4.60;99.90;;;;;;5113591;28;20044;-63
2021/12/08 00:13:02;;;;;;;9.95;4.40;;;4.60;99.90;;;;;;5125070;28;20095;-63
2021/12/08 00:13:38;;;;;;;10.43;4.10;;;4.60;99.90;;;;;;5112585;28;20052;-63
2021/12/08 00:16:10;;;;;;;6.07;3.90;;;4.40;99.90;;;;;;5123766;28;20040;-63
2021/12/08 00:18:37;;;;;;;8.70;4.07;;;4.40;99.90;;;;;;5111857;28;20032;-63
2021/12/08 00:21:08;;;;;;;11.48;4.03;;;4.50;99.90;;;;;;5122103;28;20491;-63
2021/12/08 00:23:34;;;;;;;8.13;5.07;;;4.50;99.90;;;;;;5125352;28;20048;-63
2021/12/08 00:26:00;;;;;;;5.68;3.80;;;4.30;99.90;;;;;;5124283;28;20047;-63
2021/12/08 00:28:26;;;;;;;9.45;4.35;;;4.30;99.90;;;;;;5114557;28;20066;-63
2021/12/08 00:30:56;;;;;;;9.43;4.50;;;4.60;99.90;;;;;;5127264;28;20036;-63
2021/12/08 00:33:23;;;;;;;8.50;4.20;;;4.50;99.90;;;;;;5128956;28;20105;-63
2021/12/08 00:35:51;;;;;;;10.68;4.28;;;4.40;99.90;;;;;;5112156;28;20073;-63
2021/12/08 00:38:19;;;;;;;10.23;4.20;;;4.30;99.90;;;;;;5127900;28;20040;-63
2021/12/08 00:40:46;;;;;;;11.50;4.68;;;4.30;99.90;;;;;;5127828;28;20047;-63
2021/12/08 00:43:12;;;;;;;9.30;3.95;;;4.30;99.90;;;;;;5115526;28;20032;-63
2021/12/08 00:45:38;;;;;;;6.95;4.25;;;4.50;99.90;;;;;;5097924;28;20075;-63
2021/12/08 00:48:04;;;;;;;6.95;4.22;;;4.50;99.90;;;;;;5125781;28;20074;-63
2021/12/08 00:50:34;;;;;;;10.05;4.68;;;4.40;99.90;;;;;;5127812;28;20077;-63
2021/12/08 00:53:00;;;;;;;6.07;3.83;;;4.50;99.90;;;;;;5128660;28;20058;-63
2021/12/08 00:55:28;;;;;;;7.65;3.78;;;4.60;99.90;;;;;;5113820;28;20043;-63
2021/12/08 00:57:55;;;;;;;8.68;4.68;;;4.60;99.90;;;;;;5128323;28;20042;-63
2021/12/08 01:00:28;;;;;;;9.43;4.20;;;4.70;99.90;;;;;;5121673;28;20052;-63
2021/12/08 01:02:54;;;;;;;5.40;2.67;;;4.50;99.90;;;;;;5117757;28;20086;-63
2021/12/08 01:05:24;;;;;;;5.53;2.72;;;4.60;99.90;;;;;;5125854;28;20044;-63
2021/12/08 01:07:51;;;;;;;5.63;2.85;;;4.70;99.90;;;;;;5113196;27;20400;-63
2021/12/08 01:10:23;;;;;;;9.88;3.92;;;5.00;99.90;;;;;;5125930;28;20692;-63
2021/12/08 01:12:50;;;;;;;7.22;4.07;;;4.80;99.90;;;;;;5121268;28;20051;-63
2021/12/08 01:15:17;;;;;;;7.32;3.55;;;4.80;99.90;;;;;;5109037;28;20491;-62
2021/12/08 01:17:43;;;;;;;5.57;2.72;;;4.90;99.90;;;;;;5127517;28;20118;-63
2021/12/08 01:20:11;;;;;;;8.45;3.40;;;5.00;99.90;;;;;;5126485;28;20054;-63
2021/12/08 01:22:38;;;;;;;6.05;3.38;;;5.00;99.90;;;;;;5126958;28;20058;-63
2021/12/08 01:25:05;;;;;;;12.00;4.28;;;5.00;99.90;;;;;;5126166;28;20099;-63
2021/12/08 01:27:33;;;;;;;7.28;2.67;;;5.00;99.90;;;;;;5126601;28;20055;-63
2021/12/08 01:29:59;;;;;;;10.10;4.13;;;5.00;99.90;;;;;;5112558;28;20047;-63
2021/12/08 01:32:24;;;;;;;12.43;3.75;;;5.00;99.90;;;;;;5126433;28;20040;-63
2021/12/08 01:34:52;;;;;;;9.32;2.92;;;5.00;99.90;;;;;;5125548;28;20411;-63
2021/12/08 01:37:18;;;;;;;6.03;2.75;;;5.10;99.90;;;;;;5117395;28;20130;-63
2021/12/08 01:39:45;;;;;;;6.38;3.67;;;5.10;99.90;;;;;;5121548;28;20859;-63
2021/12/08 01:42:16;;;;;;;8.52;3.97;;;5.00;99.90;;;;;;5095625;28;20039;-63
2021/12/08 01:47:29;;;;;;;6.75;2.72;;;5.10;99.90;;;;;;5126644;28;20073;-63
2021/12/08 01:49:54;;;;;;;3.92;2.70;;;4.90;99.90;;;;;;5119619;28;20059;-63
2021/12/08 01:52:20;;;;;;;5.50;4.18;;;5.00;99.90;;;;;;5120338;28;20478;-63
2021/12/08 01:54:47;;;;;;;8.18;3.60;;;4.90;99.90;;;;;;5113973;28;20433;-63
2021/12/08 01:57:13;;;;;;;5.80;2.85;;;5.10;99.90;;;;;;5126443;28;20406;-63
2021/12/08 01:59:39;;;;;;;4.80;3.25;;;5.00;99.90;;;;;;5126610;28;20065;-63
2021/12/08 02:02:05;;;;;;;8.60;3.45;;;5.10;99.90;;;;;;5107549;28;20106;-63
2021/12/08 02:04:31;;;;;;;6.80;3.63;;;5.00;99.90;;;;;;5124150;28;20047;-63
2021/12/08 02:06:58;;;;;;;4.50;2.58;;;4.90;99.90;;;;;;5117746;28;20046;-63
2021/12/08 02:09:24;;;;;;;5.05;2.80;;;5.10;99.90;;;;;;5125107;28;20051;-63
2021/12/08 02:11:53;;;;;;;7.25;4.13;;;5.20;99.90;;;;;;5125994;28;20054;-63
2021/12/08 02:14:19;;;;;;;8.57;3.60;;;5.00;99.90;;;;;;5113957;28;20047;-63
2021/12/08 02:16:46;;;;;;;4.25;3.08;;;4.90;99.90;;;;;;5125365;28;20122;-63
2021/12/08 02:19:12;;;;;;;6.82;3.40;;;5.00;99.90;;;;;;5124446;28;20077;-63
2021/12/08 02:21:40;;;;;;;5.45;2.70;;;5.00;99.90;;;;;;5126183;28;20060;-63
2021/12/08 02:24:12;;;;;;;6.28;3.25;;;5.00;99.90;;;;;;5126138;28;20035;-63
2021/12/08 02:26:42;;;;;;;8.30;3.55;;;5.00;99.90;;;;;;5113389;28;20044;-63
2021/12/08 02:29:17;;;;;;;6.18;3.22;;;4.90;99.90;;;;;;5098697;28;20051;-62
2021/12/08 02:48:00;;;;;;;3.90;2.53;;;5.00;99.90;;;;;;5124339;28;20058;-62
2021/12/08 02:50:39;;;;;;;7.40;3.58;;;5.00;99.90;;;;;;5097483;28;20449;-62
2021/12/08 02:53:07;;;;;;;6.85;3.08;;;4.80;99.90;;;;;;5106553;28;20098;-63
2021/12/08 02:55:33;;;;;;;4.32;2.70;;;4.90;99.90;;;;;;5106053;28;20044;-62
2021/12/08 02:58:01;;;;;;;6.05;3.08;;;4.90;99.90;;;;;;5119407;28;20062;-63
2021/12/08 03:00:29;;;;;;;5.10;4.10;;;4.90;99.90;;;;;;5118819;28;20063;-62
2021/12/08 03:02:57;;;;;;;8.88;3.80;;;4.90;99.90;;;;;;5118160;28;20040;-63
2021/12/08 03:05:24;;;;;;;5.93;3.03;;;5.00;99.90;;;;;;5124322;28;20099;-63
2021/12/08 03:07:51;;;;;;;4.88;2.92;;;5.10;99.90;;;;;;5109862;28;20044;-63
2021/12/08 03:10:20;;;;;;;7.20;3.13;;;5.10;99.90;;;;;;5124538;28;20050;-63
2021/12/08 03:12:46;;;;;;;6.85;3.92;;;5.10;99.90;;;;;;5122666;28;20055;-62
2021/12/08 03:15:13;;;;;;;5.55;3.50;;;5.00;99.90;;;;;;5112901;28;20408;-63
2021/12/08 03:17:39;;;;;;;7.10;3.95;;;5.10;99.90;;;;;;5124765;28;20039;-63
2021/12/08 03:20:11;;;;;;;7.38;4.20;;;5.10;99.90;;;;;;5125376;28;20063;-63
2021/12/08 03:22:43;;;;;;;6.25;3.92;;;5.00;99.90;;;;;;5111426;28;20052;-62
2021/12/08 03:25:16;;;;;;;8.10;4.07;;;5.20;99.90;;;;;;5125678;28;20563;-63
2021/12/08 03:27:49;;;;;;;4.38;3.05;;;5.20;99.90;;;;;;5124324;28;20040;-62
2021/12/08 03:30:25;;;;;;;6.53;3.88;;;5.20;99.90;;;;;;5125995;28;20415;-62
2021/12/08 03:32:56;;;;;;;9.50;5.25;;;5.20;99.90;;;;;;5123465;28;20051;-63
2021/12/08 03:35:23;;;;;;;7.57;4.80;;;5.30;99.90;;;;;;5101787;28;20052;-63
2021/12/08 03:37:49;;;;;;;7.85;5.03;;;5.20;99.90;;;;;;5123449;28;20071;-63
2021/12/08 03:40:21;;;;;;;7.30;4.78;;;5.20;99.90;;;;;;5112481;28;20051;-62
2021/12/08 03:42:48;;;;;;;6.15;4.63;;;5.20;99.90;;;;;;5091561;28;20058;-62
2021/12/08 03:45:22;;;;;;;7.88;4.10;;;5.20;99.90;;;;;;5117477;28;20408;-62
2021/12/08 03:47:50;;;;;;;8.32;4.05;;;5.30;99.90;;;;;;5099633;28;20048;-63
2021/12/08 03:50:17;;;;;;;7.68;3.58;;;5.20;99.90;;;;;;5123586;28;20079;-63
2021/12/08 03:52:44;;;;;;;6.82;3.83;;;5.30;99.90;;;;;;5124541;28;20043;-63
2021/12/08 03:55:13;;;;;;;7.03;5.00;;;5.30;99.90;;;;;;5125249;28;20073;-63
2021/12/08 03:57:38;;;;;;;10.38;5.22;;;5.30;99.90;;;;;;5124453;28;20040;-63
2021/12/08 04:00:08;;;;;;;4.60;4.20;;;5.40;99.90;;;;;;5124464;28;20092;-63
2021/12/08 04:02:34;;;;;;;10.75;7.35;;;5.50;99.90;;;;;;5119855;28;20104;-63
2021/12/08 04:05:02;;;;;;;8.70;5.05;;;5.50;99.90;;;;;;5124048;28;20044;-63
2021/12/08 04:07:28;;;;;;;7.85;6.15;;;5.40;99.90;;;;;;5114957;28;20116;-63
2021/12/08 04:09:54;;;;;;;6.97;5.65;;;5.40;99.90;;;;;;5121042;28;20054;-63
2021/12/08 04:12:20;;;;;;;6.32;5.15;;;5.40;99.90;;;;;;5128163;28;20190;-63
2021/12/08 04:14:58;;;;;;;7.15;5.65;;;5.50;99.90;;;;;;5122788;28;20047;-63
2021/12/08 04:17:33;;;;;;;6.00;4.15;;;5.50;99.90;;;;;;5129306;28;20060;-62
2021/12/08 04:20:05;;;;;;;7.60;6.55;;;5.60;99.90;;;;;;5128278;28;20059;-62
2021/12/08 04:22:37;;;;;;;7.32;5.28;;;5.60;99.90;;;;;;5128438;28;20037;-63
2021/12/08 04:25:12;;;;;;;9.60;7.28;;;5.50;99.90;;;;;;5126048;28;20071;-63
2021/12/08 04:27:41;;;;;;;8.07;5.03;;;5.50;99.90;;;;;;5127807;28;20045;-62
2021/12/08 04:30:22;;;;;;;10.77;6.95;;;5.50;99.90;;;;;;5127257;28;20039;-62
2021/12/08 04:32:48;;;;;;;10.88;6.20;;;5.50;99.90;;;;;;5127778;28;20040;-62
2021/12/08 04:35:18;;;;;;;9.23;5.35;;;5.70;99.90;;;;;;5123755;28;20048;-63
2021/12/08 04:37:48;;;;;;;8.50;6.77;;;5.70;99.90;;;;;;5120585;28;20101;-63
2021/12/08 04:45:27;;;;;;;6.75;5.70;;;5.60;99.90;;;;;;5126952;28;20055;-63
2021/12/08 04:48:26;;;;;;;8.75;6.88;;;5.60;99.90;;;;;;5114331;28;20046;-63
2021/12/08 05:09:41;;;;;;;8.48;7.15;;;5.70;99.90;;;;;;5012936;28;20122;-63
2021/12/08 05:12:12;;;;;;;10.07;7.38;;;5.80;99.90;;;;;;5008429;28;20061;-63
2021/12/08 05:14:52;;;;;;;12.60;8.10;;;5.90;99.90;;;;;;5024479;28;20062;-63
2021/12/08 05:17:26;;;;;;;10.68;8.20;;;5.90;99.90;;;;;;5024901;28;20065;-63
2021/12/08 05:19:57;;;;;;;10.15;7.35;;;5.80;99.90;;;;;;5024423;28;20069;-61
2021/12/08 05:22:31;;;;;;;10.63;7.93;;;5.80;99.90;;;;;;5025010;28;20046;-61
2021/12/08 05:25:04;;;;;;;10.82;6.88;;;5.80;99.90;;;;;;5024652;28;20144;-61
2021/12/08 05:27:40;;;;;;;10.18;8.63;;;5.80;99.90;;;;;;5057895;28;20070;-61
2021/12/08 05:30:18;;;;;;;11.10;7.40;;;5.90;99.90;;;;;;5119300;28;20059;-61
2021/12/08 05:32:45;;;;;;;11.25;9.57;;;5.80;99.90;;;;;;5103808;28;20051;-60
2021/12/08 05:35:13;;;;;;;11.57;6.88;;;5.70;99.90;;;;;;5123127;28;20099;-61
2021/12/08 05:37:40;;;;;;;9.18;8.15;;;5.70;99.90;;;;;;5127804;28;20097;-63
2021/12/08 05:40:13;;;;;;;14.15;7.70;;;5.70;99.90;;;;;;5126293;28;20043;-63
2021/12/08 05:42:39;;;;;;;8.52;6.05;;;5.70;99.90;;;;;;5127833;28;20096;-63
2021/12/08 05:45:10;;;;;;;9.82;7.30;;;5.80;99.90;;;;;;5124412;28;20043;-64
2021/12/08 05:47:36;;;;;;;10.15;7.32;;;5.70;99.90;;;;;;5104501;28;20048;-64
2021/12/08 05:50:04;;;;;;;9.57;6.82;;;5.70;99.90;;;;;;5100884;28;20115;-64
2021/12/08 05:52:30;;;;;;;9.93;7.20;;;5.70;99.90;;;;;;5111571;28;20055;-64
2021/12/08 05:54:55;;;;;;;10.55;7.57;;;5.70;99.90;;;;;;5105004;28;20071;-61
2021/12/08 05:57:29;;;;;;;12.07;8.10;;;5.70;99.90;;;;;;5112525;28;20035;-62
2021/12/08 05:59:56;;;;;;;8.00;6.43;;;5.60;99.90;;;;;;5106572;28;20097;-62
2021/12/08 06:02:32;;;;;;;11.68;7.72;;;5.70;99.90;;;;;;5114255;28;20055;-61
2021/12/08 06:04:59;;;;;;;11.10;7.63;;;5.50;99.90;;;;;;5120628;28;20047;-62
2021/12/08 06:07:25;;;;;;;9.75;7.63;;;5.40;99.90;;;;;;5113758;28;20044;-61
2021/12/08 06:09:55;;;;;;;8.85;7.07;;;5.60;99.90;;;;;;5099328;28;20409;-62
2021/12/08 06:12:22;;;;;;;11.38;7.20;;;5.60;99.90;;;;;;5061856;28;20043;-62
2021/12/08 06:14:54;;;;;;;11.70;7.75;;;5.50;99.90;;;;;;5069284;28;20047;-62
2021/12/08 06:17:23;;;;;;;12.38;7.70;;;5.50;99.90;;;;;;5072501;28;20056;-62
2021/12/08 06:19:49;;;;;;;8.50;6.70;;;5.50;99.90;;;;;;5095852;28;20055;-62
2021/12/08 06:22:18;;;;;;;10.80;6.90;;;5.40;99.90;;;;;;5089359;28;20462;-62
2021/12/08 06:24:45;;;;;;;10.45;6.97;;;5.50;99.90;;;;;;5099153;28;20581;-62
2021/12/08 06:27:11;;;;;;;14.23;7.22;;;5.60;99.90;;;;;;5085427;28;20539;-62
2021/12/08 06:29:37;;;;;;;10.27;7.50;;;5.50;99.90;;;;;;5096639;28;20055;-62
2021/12/08 06:32:06;;;;;;;10.85;7.47;;;5.50;99.90;;;;;;5082776;28;20055;-62
2021/12/08 06:34:32;;;;;;;9.70;7.00;;;5.50;99.90;;;;;;5095880;28;20429;-62
2021/12/08 06:37:12;;;;;;;12.57;8.05;;;5.50;99.90;;;;;;5087262;28;20056;-62
2021/12/08 06:39:44;;;;;;;9.83;6.43;;;5.40;99.90;;;;;;5117448;28;20453;-64
2021/12/08 06:42:15;;;;;;;11.50;7.15;;;5.50;99.90;;;;;;5089940;28;20047;-63
2021/12/08 06:44:46;;;;;;;9.70;5.78;;;5.40;99.90;;;;;;5118731;28;20040;-64
2021/12/08 06:47:20;;;;;;;8.68;6.70;;;5.30;99.90;;;;;;5106620;28;20047;-63
2021/12/08 06:49:48;;;;;;;8.00;5.60;;;5.40;99.90;;;;;;5099535;28;20500;-62
2021/12/08 06:52:20;;;;;;;10.52;5.35;;;5.50;99.90;;;;;;5088224;28;20330;-64
2021/12/08 06:54:57;;;;;;;8.68;6.63;;;5.50;99.90;;;;;;5099570;28;20117;-65
2021/12/08 06:57:34;;;;;;;11.43;6.15;;;5.50;99.90;;;;;;5088976;28;20040;-64
2021/12/08 07:00:15;;;;;;;9.65;5.85;;;5.50;99.90;;;;;;5100735;28;20123;-65
2021/12/08 07:05:27;;;;;;;10.30;5.33;;;5.70;99.90;;;;;;5096055;28;20054;-65
2021/12/08 07:07:58;;;;;;;11.93;5.50;;;5.70;99.90;;;;;;5056877;28;20048;-65
2021/12/08 07:10:32;;;;;;;9.73;5.78;;;5.80;99.90;;;;;;5080592;28;20100;-65
2021/12/08 07:13:09;;;;;;;12.38;6.00;;;5.70;99.90;;;;;;5091090;28;20347;-65
2021/12/08 07:15:45;;;;;;;7.90;4.57;;;5.70;99.90;;;;;;5068780;28;20453;-65
2021/12/08 07:18:28;;;;;;;6.10;4.80;;;5.70;99.90;;;;;;5111998;28;20051;-65
2021/12/08 07:21:01;;;;;;;8.48;4.68;;;5.80;99.90;;;;;;5086929;28;20170;-64
2021/12/08 07:23:37;;;;;;;5.75;4.57;;;5.80;99.90;;;;;;5102430;28;20052;-63
2021/12/08 07:26:11;;;;;;;6.85;4.40;;;5.80;99.90;;;;;;5107057;28;20089;-65
2021/12/08 07:28:40;;;;;;;6.72;4.10;;;5.80;99.90;;;;;;5099934;28;20055;-62
2021/12/08 07:31:15;;;;;;;7.13;4.07;;;5.90;99.90;;;;;;5106737;28;20047;-62
2021/12/08 07:33:43;;;;;;;5.72;4.18;;;5.80;99.90;;;;;;5116680;28;20055;-62
2021/12/08 07:36:15;;;;;;;7.10;3.15;;;5.70;99.90;;;;;;5085050;28;20581;-63
2021/12/08 07:38:43;;;;;;;5.80;3.55;;;5.70;99.90;;;;;;5094343;28;20113;-62
2021/12/08 07:41:21;;;;;;;8.02;3.60;;;5.80;99.90;;;;;;5091460;28;20458;-62
2021/12/08 07:43:52;;;;;;;7.03;3.80;;;5.80;99.90;;;;;;5101934;28;20077;-62
2021/12/08 07:46:25;;;;;;;7.45;3.25;;;5.80;99.90;;;;;;5080602;28;20063;-61
2021/12/08 07:48:58;;;;;;;6.82;2.90;;;5.60;99.90;;;;;;5121419;28;20044;-61
2021/12/08 07:51:31;;;;;;;6.63;3.15;;;5.90;99.90;;;;;;5111915;28;20050;-63
2021/12/08 07:53:58;;;;;;;6.95;2.97;;;5.90;99.90;;;;;;5122600;28;20042;-62
2021/12/08 07:56:26;;;;;;;7.65;3.13;;;5.90;99.90;;;;;;5108672;28;20052;-62
2021/12/08 07:58:56;;;;;;;2.50;1.83;;;5.90;99.90;;;;;;5122043;28;20039;-61
2021/12/08 08:01:26;;;;;;;6.07;2.58;;;6.00;99.90;;;;;;5107746;28;20081;-62
2021/12/08 08:03:52;;;;;;;;;;;6.00;99.90;;;;;;5121499;28;20044;-62
2021/12/08 08:06:26;;;;;;;4.75;2.10;;;6.00;99.90;;;;;;5104266;28;19920;-62
2021/12/08 08:08:52;;;;;;;8.30;2.42;;;6.10;99.90;;;;;;5119174;28;20042;-62
2021/12/08 08:11:42;;;;;;;6.30;2.40;;;6.10;99.90;;;;;;5096159;28;20052;-61
2021/12/08 08:14:11;;;;;;;5.25;2.30;;;6.10;99.90;;;;;;5112662;28;20092;-62
2021/12/08 08:16:39;;;;;;;10.05;2.80;;;6.10;99.90;;;;;;5112491;28;20048;-62
2021/12/08 08:19:11;;;;;;;7.55;2.60;;;6.00;99.90;;;;;;5120376;28;20072;-61
2021/12/08 08:21:44;;;;;;;4.50;2.20;;;5.80;99.90;;;;;;5068258;28;20039;-61
2021/12/08 08:24:11;;;;;;;7.68;2.75;;;6.00;99.90;;;;;;5103578;28;20058;-61
2021/12/08 08:26:40;;;;;;;6.65;2.35;;;5.90;99.90;;;;;;5094568;28;20051;-64
2021/12/08 08:29:07;;;;;;;8.15;2.00;;;5.90;99.90;;;;;;5103710;28;20056;-62
2021/12/08 08:31:42;;;;;;;6.40;2.45;;;6.10;99.90;;;;;;5112316;28;20181;-63
2021/12/08 08:34:11;;;;;;;6.28;2.35;;;6.10;99.90;;;;;;5102634;28;20086;-62
2021/12/08 08:36:42;;;;;;;5.88;1.77;;;6.10;99.90;;;;;;5098336;28;20154;-61
2021/12/08 08:39:11;;;;;;;5.55;1.95;;;6.20;99.90;;;;;;5085320;28;20053;-61
2021/12/08 08:41:43;;;;;;;5.90;2.00;;;6.30;99.90;;;;;;5076999;28;20043;-62
2021/12/08 08:44:16;;;;;;;5.97;2.00;;;6.50;99.90;;;;;;5112124;28;20052;-62
2021/12/08 08:46:48;;;;;;;7.30;2.13;;;6.40;99.90;;;;;;5095626;28;20166;-61
2021/12/08 08:49:24;;;;;;;6.72;1.88;;;6.50;99.90;;;;;;5081350;28;20067;-61
2021/12/08 08:52:08;;;;;;;8.50;2.15;;;6.40;99.90;;;;;;5080563;28;20059;-62
2021/12/08 08:54:42;;;;;;;5.97;2.30;;;6.30;99.90;;;;;;5090107;28;20493;-62
2021/12/08 08:57:17;;;;;;;11.73;2.20;;;6.20;99.90;;;;;;5078574;28;20558;-61
2021/12/08 08:59:48;;;;;;;8.63;2.13;;;6.40;99.90;;;;;;5110030;27;20501;-61
2021/12/08 09:02:21;;;;;;;9.63;2.33;;;6.50;99.90;;;;;;5079644;27;20057;-61
2021/12/08 09:04:52;;;;;;;5.45;1.70;;;6.30;99.90;;;;;;5102018;28;21441;-62
2021/12/08 09:07:23;;;;;;;5.53;1.90;;;6.50;99.90;;;;;;5106341;28;20047;-62
2021/12/08 09:09:51;;;;;;;6.15;1.98;;;6.60;99.90;;;;;;5100456;28;20048;-62
2021/12/08 09:12:26;;;;;;;5.43;1.95;;;6.50;99.90;;;;;;5066632;28;20103;-62
2021/12/08 09:15:03;;;;;;;7.80;2.30;;;6.50;99.90;;;;;;5128680;27;20050;-62
2021/12/08 09:17:44;;;;;;;10.50;2.30;;;6.50;99.90;;;;;;5079358;28;20120;-61
2021/12/08 09:20:21;;;;;;;9.02;2.33;;;6.50;99.90;;;;;;5139588;27;20067;-63
2021/12/08 09:22:55;;;;;;;6.55;2.10;;;6.60;99.90;;;;;;5097370;28;20040;-63
2021/12/08 09:25:54;;;;;;;7.68;2.65;;;6.70;99.90;;;;;;5122247;27;20098;-62
2021/12/08 09:28:28;;;;;;;7.57;2.35;;;6.70;99.90;;;;;;5112932;27;20039;-62
2021/12/08 09:31:07;;;;;;;7.32;2.20;;;6.70;99.90;;;;;;5095667;27;20038;-64
2021/12/08 09:33:39;;;;;;;9.65;2.38;;;6.80;99.90;;;;;;5100958;28;20031;-61
2021/12/08 09:36:18;;;;;;;6.13;2.70;;;6.50;99.90;;;;;;5116368;27;20131;-62
2021/12/08 09:38:59;;;;;;;7.67;2.07;;;6.80;99.90;;;;;;5125332;27;20054;-62
2021/12/08 09:41:40;;;;;;;9.90;2.50;;;6.80;99.90;;;;;;5106143;28;20587;-62
2021/12/08 09:44:23;;;;;;;6.80;2.22;;;6.80;99.90;;;;;;5114383;28;20078;-62
2021/12/08 09:46:51;;;;;;;9.63;2.72;;;6.90;99.90;;;;;;5095097;28;20073;-62
2021/12/08 09:49:23;;;;;;;4.65;2.00;;;6.90;99.90;;;;;;5119473;27;20130;-61
2021/12/08 09:51:51;;;;;;;13.13;3.45;;;6.80;99.90;;;;;;5112102;27;20078;-62
2021/12/08 09:54:17;;;;;;;6.95;2.20;;;6.60;99.90;;;;;;5121415;27;20066;-62
2021/12/08 09:56:44;;;;;;;12.10;2.85;;;6.70;99.90;;;;;;5124418;27;20044;-62
2021/12/08 09:59:11;;;;;;;12.35;2.92;;;6.80;99.90;;;;;;5126548;27;20058;-62
2021/12/08 10:01:40;;;;;;;8.25;2.83;;;6.90;99.90;;;;;;5108606;27;20067;-62
2021/12/08 10:04:07;;;;;;;10.23;2.63;;;6.70;99.90;;;;;;5111334;27;20104;-62
2021/12/08 10:06:36;;;;;;;10.60;2.10;;;6.60;99.90;;;;;;5117037;27;20067;-62
2021/12/08 10:09:03;;;;;;;10.63;3.28;;;6.80;99.90;;;;;;5107373;27;20043;-61
2021/12/08 10:11:30;;;;;;;8.63;2.60;;;6.80;99.90;;;;;;5105919;27;20094;-62
2021/12/08 10:13:56;;;;;;;7.90;2.22;;;6.80;99.90;;;;;;5120414;27;20130;-61
2021/12/08 10:16:22;;;;;;;9.02;2.47;;;6.70;99.90;;;;;;5107413;27;20126;-62
2021/12/08 10:18:48;;;;;;;9.75;3.00;;;6.70;99.90;;;;;;5124193;27;20499;-61
2021/12/08 10:21:15;;;;;;;11.20;2.60;;;6.80;99.90;;;;;;5119379;27;20084;-62
2021/12/08 10:23:43;;;;;;;9.43;2.72;;;6.80;99.90;;;;;;5118223;27;20463;-62
2021/12/08 10:26:11;;;;;;;10.40;2.80;;;6.90;99.90;;;;;;5111247;27;20395;-61
2021/12/08 10:28:43;;;;;;;8.07;2.50;;;6.90;99.90;;;;;;5124000;27;20045;-61
2021/12/08 10:31:16;;;;;;;6.45;2.17;;;6.90;99.90;;;;;;5129614;27;20077;-61
2021/12/08 10:37:03;;;;;;;9.85;3.13;;;7.10;99.90;;;;;;5107459;27;20051;-61
2021/12/08 10:39:30;;;;;;;7.50;2.33;;;7.20;99.90;;;;;;5119762;27;20043;-62
2021/12/08 10:42:05;;;;;;;11.98;2.67;;;7.00;99.90;;;;;;5119257;27;20055;-63
2021/12/08 10:47:16;;;;;;;5.95;1.88;;;7.50;99.90;;;;;;5117034;27;20051;-63
2021/12/08 10:55:12;;;;;;;8.25;2.45;;;7.60;99.90;;;;;;5112062;27;20043;-62
2021/12/08 10:57:39;;;;;;;9.73;2.50;;;7.70;99.90;;;;;;5096095;28;20055;-63
2021/12/08 11:00:13;;;;;;;7.53;2.63;;;7.80;99.90;;;;;;5112633;27;20477;-64
2021/12/08 11:02:47;;;;;;;6.43;2.53;;;7.80;99.90;;;;;;5112373;27;20040;-63
2021/12/08 11:05:24;;;;;;;8.05;2.53;;;7.70;99.90;;;;;;5129371;27;20032;-64
2021/12/08 11:08:02;;;;;;;8.30;1.95;;;7.90;99.90;;;;;;5089317;28;20150;-63
2021/12/08 11:10:29;;;;;;;7.65;2.83;;;7.90;99.90;;;;;;5122846;27;20062;-63
2021/12/08 11:12:57;;;;;;;9.25;3.22;;;7.70;99.90;;;;;;5106606;28;20097;-63
2021/12/08 11:15:24;;;;;;;7.90;3.00;;;7.80;99.90;;;;;;5094732;28;20054;-63
2021/12/08 11:18:22;;;;;;;8.32;2.25;;;7.70;99.90;;;;;;5074259;28;20076;-63
2021/12/08 11:20:54;;;;;;;5.75;2.05;;;7.80;99.90;;;;;;5116169;27;20090;-63
2021/12/08 11:23:44;;;;;;;6.78;2.05;;;7.80;99.90;;;;;;5111135;27;20079;-63
2021/12/08 11:26:15;;;;;;;9.07;2.67;;;8.00;99.90;;;;;;5110667;28;20065;-63
2021/12/08 11:28:42;;;;;;;8.20;2.20;;;8.00;99.90;;;;;;5087076;28;20043;-63
2021/12/08 11:31:12;;;;;;;8.48;2.33;;;8.00;99.90;;;;;;5120179;28;20057;-63
2021/12/08 11:33:47;;;;;;;9.43;2.45;;;8.00;99.90;;;;;;5077687;28;20105;-63
2021/12/08 11:36:17;;;;;;;9.13;2.47;;;7.80;99.90;;;;;;5097637;28;20047;-63
2021/12/08 11:38:45;;;;;;;6.20;2.20;;;8.10;99.90;;;;;;5088547;28;20060;-63
2021/12/08 11:41:34;;;;;;;7.75;2.42;;;8.00;99.90;;;;;;5117836;28;20055;-63
2021/12/08 11:44:03;;;;;;;7.70;2.50;;;8.10;99.90;;;;;;5088640;28;20111;-63
2021/12/08 11:46:36;;;;;;;7.68;2.42;;;8.20;99.90;;;;;;5105994;28;20044;-63
2021/12/08 11:49:10;;;;;;;6.15;2.40;;;8.20;99.90;;;;;;5066389;28;20550;-63
2021/12/08 11:51:42;;;;;;;7.57;2.13;;;8.20;99.90;;;;;;5069932;28;20051;-63
2021/12/08 11:54:28;;;;;;;10.63;2.20;;;8.00;99.90;;;;;;5097577;28;20052;-62
2021/12/08 11:57:10;;;;;;;7.82;1.95;;;8.00;99.90;;;;;;5022947;28;20108;-63
2021/12/08 11:59:44;;;;;;;6.60;2.65;;;8.10;99.90;;;;;;5033655;28;20062;-63
2021/12/08 12:02:13;;;;;;;7.40;2.20;;;8.00;99.90;;;;;;5001389;28;20064;-64
2021/12/08 12:04:43;;;;;;;7.10;2.50;;;7.90;99.90;;;;;;5025476;28;20057;-63
2021/12/08 12:07:14;;;;;;;6.57;2.38;;;7.90;99.90;;;;;;5014164;28;20045;-63
2021/12/08 12:09:40;;;;;;;8.35;2.10;;;7.90;99.90;;;;;;5021859;28;20045;-63
2021/12/08 12:12:06;;;;;;;6.03;2.22;;;7.70;99.90;;;;;;5015639;28;20049;-62
2021/12/08 12:14:32;;;;;;;9.38;2.20;;;7.80;99.90;;;;;;5035975;28;20053;-63
2021/12/08 12:16:58;;;;;;;9.35;2.17;;;7.80;99.90;;;;;;5025898;28;20176;-63
2021/12/08 12:19:27;;;;;;;8.75;2.63;;;7.90;99.90;;;;;;5035552;28;20072;-62
2021/12/08 12:22:18;;;;;;;8.38;2.30;;;7.90;99.90;;;;;;5040553;28;20041;-64
2021/12/08 12:25:05;;;;;;;6.65;2.35;;;7.80;99.90;;;;;;5027573;28;20057;-63
2021/12/08 12:28:02;;;;;;;8.60;2.10;;;7.90;99.90;;;;;;5025236;28;20057;-62
2021/12/08 12:30:55;;;;;;;8.88;2.40;;;7.70;99.90;;;;;;5052418;28;20045;-62
2021/12/08 12:33:22;;;;;;;3.92;1.90;;;7.80;99.90;;;;;;5021052;28;20078;-63
2021/12/08 12:35:55;;;;;;;6.68;2.50;;;7.80;99.90;;;;;;5086021;28;20084;-63
2021/12/08 12:38:36;;;;;;;9.32;2.20;;;7.90;99.90;;;;;;5076863;28;20056;-63
2021/12/08 12:41:04;;;;;;;8.10;2.40;;;7.90;99.90;;;;;;5070836;28;20131;-63
2021/12/08 12:43:35;;;;;;;8.43;2.13;;;7.80;99.90;;;;;;5091252;28;20048;-62
2021/12/08 12:46:13;;;;;;;9.70;2.90;;;7.70;99.90;;;;;;5088304;28;20050;-63
2021/12/08 12:48:39;;;;;;;7.50;2.03;;;7.60;99.90;;;;;;5104339;27;20043;-63
2021/12/08 12:51:08;;;;;;;11.63;3.13;;;7.70;99.90;;;;;;5117534;28;20398;-63
2021/12/08 12:53:45;;;;;;;6.40;2.45;;;7.70;99.90;;;;;;5093413;28;20066;-64
2021/12/08 12:56:30;;;;;;;7.05;3.00;;;7.70;99.90;;;;;;5100329;28;20040;-63
2021/12/08 12:58:57;;;;;;;6.38;2.00;;;7.70;99.90;;;;;;5055558;28;20075;-63
2021/12/08 13:01:33;;;;;;;6.78;2.63;;;7.90;99.90;;;;;;5094541;28;20043;-63
2021/12/08 13:04:08;;;;;;;10.73;2.72;;;7.60;99.90;;;;;;5089954;28;20040;-63
2021/12/08 13:06:58;;;;;;;9.57;2.35;;;7.60;99.90;;;;;;5079087;28;20361;-66
2021/12/08 13:09:47;;;;;;;5.47;1.80;;;7.40;99.90;;;;;;5084660;28;20431;-63
2021/12/08 13:12:27;;;;;;;5.80;2.13;;;7.70;99.90;;;;;;5068497;28;20048;-64
2021/12/08 13:15:08;;;;;;;5.45;2.00;;;7.60;99.90;;;;;;5130303;27;20047;-63
2021/12/08 13:17:35;;;;;;;8.50;2.95;;;7.80;99.90;;;;;;5112952;27;20059;-63
2021/12/08 13:20:06;;;;;;;8.77;2.70;;;7.90;99.90;;;;;;5091880;28;20600;-63
2021/12/08 13:22:45;;;;;;;11.00;2.22;;;7.70;99.90;;;;;;5107497;28;20064;-64
2021/12/08 13:25:30;;;;;;;5.43;1.77;;;7.60;99.90;;;;;;5100262;28;20072;-63
2021/12/08 13:28:23;;;;;;;7.38;2.10;;;7.80;99.90;;;;;;5089582;28;20766;-64
2021/12/08 13:31:19;;;;;;;8.40;2.90;;;7.80;99.90;;;;;;5100189;28;20047;-63
2021/12/08 13:33:58;;;;;;;3.97;1.60;;;7.80;99.90;;;;;;5076949;28;20076;-63
2021/12/08 13:36:28;;;;;;;7.35;2.08;;;8.00;99.90;;;;;;5081393;28;20175;-64
2021/12/08 13:38:57;;;;;;;5.43;2.22;;;8.00;99.90;;;;;;5088264;28;20073;-63
2021/12/08 13:41:31;;;;;;;8.13;2.00;;;7.80;99.90;;;;;;5109324;28;20077;-63
2021/12/08 13:43:58;;;;;;;9.32;2.30;;;7.80;99.90;;;;;;5089177;28;20069;-63
2021/12/08 13:46:45;;;;;;;5.85;2.10;;;7.80;99.90;;;;;;5111582;28;20094;-64
2021/12/08 13:49:12;;;;;;;5.60;2.10;;;7.80;99.90;;;;;;5087431;27;20071;-63
2021/12/08 13:51:38;;;;;;;6.38;1.63;;;7.80;99.90;;;;;;5119049;27;20050;-64
2021/12/08 13:54:32;;;;;;;4.30;1.92;;;7.80;99.90;;;;;;5072578;28;20344;-62
2021/12/08 13:56:59;;;;;;;5.47;2.15;;;7.60;99.90;;;;;;5105285;28;20050;-63
2021/12/08 13:59:53;;;;;;;5.53;2.15;;;7.70;99.90;;;;;;5035387;28;20044;-62
2021/12/08 14:02:29;;;;;;;6.82;2.55;;;7.70;99.90;;;;;;5074393;28;20051;-62
2021/12/08 14:05:06;;;;;;;5.28;1.95;;;7.60;99.90;;;;;;5085743;28;20165;-62
2021/12/08 14:07:35;;;;;;;5.28;1.60;;;7.60;99.90;;;;;;5085667;28;20051;-62
2021/12/08 14:10:23;;;;;;;3.28;1.73;;;7.80;99.90;;;;;;5087294;28;20043;-62
2021/12/08 14:12:54;;;;;;;5.85;2.70;;;7.60;99.90;;;;;;5087163;27;20051;-62
2021/12/08 14:15:26;;;;;;;5.45;1.90;;;7.80;99.90;;;;;;5136082;27;20494;-63